Terminal Aerodrome Forecast
Issued by NWS Wakefield, VA

Home | Current Version | Previous Version | Text Only | Print | Product List | Glossary On
Versions: 1 2 3 4 5 6 7 8 9 10 11 12 13 14 15 16 17 18 19 20 21 22
179
FTUS41 KAKQ 062340
TAFECG
TAF
KECG 062340Z 0700/0724 03006KT P6SM BKN250
     FM070300 02007KT P6SM BKN150
     FM070900 01010G18KT P6SM BKN050 OVC100
     FM071500 02015G25KT P6SM BKN025 OVC050
     FM072000 02024G32KT 5SM -RA BKN030 OVC080=

USA.gov is the U.S. government's official web portal to all federal, state and local government web resources and services.